sensor_id;sensor_type;location;lat;lon;timestamp;P1;durP1;ratioP1;P2;durP2;ratioP2
35757;SDS011;21879;50.110;18.900;2023-03-01T00:00:31;36.80;;;21.80;;
35757;SDS011;21879;50.110;18.900;2023-03-01T00:11:03;43.60;;;26.30;;
35757;SDS011;21879;50.110;18.900;2023-03-01T00:21:29;30.50;;;19.50;;
35757;SDS011;21879;50.110;18.900;2023-03-01T00:31:53;35.40;;;21.10;;
35757;SDS011;21879;50.110;18.900;2023-03-01T00:42:18;44.20;;;27.50;;
35757;SDS011;21879;50.110;18.900;2023-03-01T00:52:42;48.60;;;26.50;;
35757;SDS011;21879;50.110;18.900;2023-03-01T01:03:06;57.30;;;34.80;;
35757;SDS011;21879;50.110;18.900;2023-03-01T01:13:31;46.60;;;27.40;;
35757;SDS011;21879;50.110;18.900;2023-03-01T01:23:57;39.50;;;26.40;;
35757;SDS011;21879;50.110;18.900;2023-03-01T01:34:22;51.30;;;29.80;;
35757;SDS011;21879;50.110;18.900;2023-03-01T01:44:46;52.20;;;30.90;;
35757;SDS011;21879;50.110;18.900;2023-03-01T01:55:11;61.00;;;33.80;;
35757;SDS011;21879;50.110;18.900;2023-03-01T02:05:44;57.90;;;36.50;;
35757;SDS011;21879;50.110;18.900;2023-03-01T02:16:17;64.00;;;39.00;;
35757;SDS011;21879;50.110;18.900;2023-03-01T02:26:45;82.20;;;51.60;;
35757;SDS011;21879;50.110;18.900;2023-03-01T02:37:14;77.50;;;43.20;;
35757;SDS011;21879;50.110;18.900;2023-03-01T02:47:44;85.80;;;51.60;;
35757;SDS011;21879;50.110;18.900;2023-03-01T02:58:08;74.20;;;46.10;;
35757;SDS011;21879;50.110;18.900;2023-03-01T03:08:32;64.50;;;39.90;;
35757;SDS011;21879;50.110;18.900;2023-03-01T03:18:57;57.80;;;37.00;;
35757;SDS011;21879;50.110;18.900;2023-03-01T03:29:27;69.10;;;39.40;;
35757;SDS011;21879;50.110;18.900;2023-03-01T03:39:51;64.30;;;35.10;;
35757;SDS011;21879;50.110;18.900;2023-03-01T03:50:17;54.00;;;32.60;;
35757;SDS011;21879;50.110;18.900;2023-03-01T04:00:42;59.30;;;33.30;;
35757;SDS011;21879;50.110;18.900;2023-03-01T04:11:08;59.60;;;36.60;;
35757;SDS011;21879;50.110;18.900;2023-03-01T04:21:49;57.00;;;32.60;;
35757;SDS011;21879;50.110;18.900;2023-03-01T04:32:14;56.60;;;36.10;;
35757;SDS011;21879;50.110;18.900;2023-03-01T04:42:39;55.00;;;32.60;;
35757;SDS011;21879;50.110;18.900;2023-03-01T04:53:03;55.30;;;35.10;;
35757;SDS011;21879;50.110;18.900;2023-03-01T05:03:27;47.80;;;32.10;;
35757;SDS011;21879;50.110;18.900;2023-03-01T05:13:51;52.30;;;33.40;;
35757;SDS011;21879;50.110;18.900;2023-03-01T05:24:17;71.50;;;40.30;;
35757;SDS011;21879;50.110;18.900;2023-03-01T05:34:41;70.60;;;43.00;;
35757;SDS011;21879;50.110;18.900;2023-03-01T05:45:08;210.10;;;146.80;;
35757;SDS011;21879;50.110;18.900;2023-03-01T05:55:33;130.00;;;87.90;;
35757;SDS011;21879;50.110;18.900;2023-03-01T06:05:58;73.70;;;52.10;;
35757;SDS011;21879;50.110;18.900;2023-03-01T06:16:22;74.00;;;43.80;;
35757;SDS011;21879;50.110;18.900;2023-03-01T06:26:46;68.40;;;43.50;;
35757;SDS011;21879;50.110;18.900;2023-03-01T06:37:11;71.70;;;43.80;;
35757;SDS011;21879;50.110;18.900;2023-03-01T06:47:35;72.10;;;44.50;;
35757;SDS011;21879;50.110;18.900;2023-03-01T06:58:00;80.40;;;49.50;;
35757;SDS011;21879;50.110;18.900;2023-03-01T07:08:25;78.10;;;46.20;;
35757;SDS011;21879;50.110;18.900;2023-03-01T07:18:50;105.60;;;66.60;;
35757;SDS011;21879;50.110;18.900;2023-03-01T07:29:15;86.20;;;50.10;;
35757;SDS011;21879;50.110;18.900;2023-03-01T07:39:41;96.00;;;61.40;;
35757;SDS011;21879;50.110;18.900;2023-03-01T07:50:06;67.20;;;44.30;;
35757;SDS011;21879;50.110;18.900;2023-03-01T08:00:33;70.10;;;42.50;;
35757;SDS011;21879;50.110;18.900;2023-03-01T08:10:58;49.60;;;32.10;;
35757;SDS011;21879;50.110;18.900;2023-03-01T08:21:23;47.90;;;29.80;;
35757;SDS011;21879;50.110;18.900;2023-03-01T08:31:48;49.10;;;30.50;;
35757;SDS011;21879;50.110;18.900;2023-03-01T08:42:12;44.20;;;27.50;;
35757;SDS011;21879;50.110;18.900;2023-03-01T08:52:37;38.90;;;24.70;;
35757;SDS011;21879;50.110;18.900;2023-03-01T09:03:02;41.80;;;25.10;;
35757;SDS011;21879;50.110;18.900;2023-03-01T09:13:28;42.10;;;26.50;;
35757;SDS011;21879;50.110;18.900;2023-03-01T09:23:55;32.00;;;20.40;;
35757;SDS011;21879;50.110;18.900;2023-03-01T09:34:20;20.10;;;11.20;;
35757;SDS011;21879;50.110;18.900;2023-03-01T09:44:47;21.00;;;11.00;;
35757;SDS011;21879;50.110;18.900;2023-03-01T09:55:15;20.50;;;11.70;;
35757;SDS011;21879;50.110;18.900;2023-03-01T10:05:59;26.40;;;14.90;;
35757;SDS011;21879;50.110;18.900;2023-03-01T10:26:57;23.80;;;15.10;;
35757;SDS011;21879;50.110;18.900;2023-03-01T10:37:26;27.00;;;15.70;;
35757;SDS011;21879;50.110;18.900;2023-03-01T10:47:55;24.70;;;14.70;;
35757;SDS011;21879;50.110;18.900;2023-03-01T10:58:28;23.90;;;14.90;;
35757;SDS011;21879;50.110;18.900;2023-03-01T11:08:54;25.00;;;14.60;;
35757;SDS011;21879;50.110;18.900;2023-03-01T11:19:20;21.10;;;13.40;;
35757;SDS011;21879;50.110;18.900;2023-03-01T11:29:46;22.60;;;14.20;;
35757;SDS011;21879;50.110;18.900;2023-03-01T11:40:16;25.30;;;14.10;;
35757;SDS011;21879;50.110;18.900;2023-03-01T11:50:45;23.70;;;15.20;;
35757;SDS011;21879;50.110;18.900;2023-03-01T12:01:24;26.50;;;15.90;;
35757;SDS011;21879;50.110;18.900;2023-03-01T12:12:00;29.60;;;17.90;;
35757;SDS011;21879;50.110;18.900;2023-03-01T12:22:37;23.90;;;18.00;;
35757;SDS011;21879;50.110;18.900;2023-03-01T12:33:19;28.90;;;18.10;;
35757;SDS011;21879;50.110;18.900;2023-03-01T12:43:57;28.30;;;18.40;;
35757;SDS011;21879;50.110;18.900;2023-03-01T12:54:29;33.80;;;19.60;;
35757;SDS011;21879;50.110;18.900;2023-03-01T13:05:07;28.90;;;17.60;;
35757;SDS011;21879;50.110;18.900;2023-03-01T13:15:47;30.50;;;17.50;;
35757;SDS011;21879;50.110;18.900;2023-03-01T13:26:14;29.80;;;17.40;;
35757;SDS011;21879;50.110;18.900;2023-03-01T13:36:46;26.60;;;17.40;;
35757;SDS011;21879;50.110;18.900;2023-03-01T13:47:14;24.80;;;18.00;;
35757;SDS011;21879;50.110;18.900;2023-03-01T13:57:42;29.10;;;16.60;;
35757;SDS011;21879;50.110;18.900;2023-03-01T14:08:21;28.30;;;15.50;;
35757;SDS011;21879;50.110;18.900;2023-03-01T14:18:49;27.80;;;15.50;;
35757;SDS011;21879;50.110;18.900;2023-03-01T14:29:26;18.50;;;11.70;;
35757;SDS011;21879;50.110;18.900;2023-03-01T14:39:58;23.50;;;13.50;;
35757;SDS011;21879;50.110;18.900;2023-03-01T14:50:25;23.00;;;14.70;;
35757;SDS011;21879;50.110;18.900;2023-03-01T15:00:52;22.80;;;13.70;;
35757;SDS011;21879;50.110;18.900;2023-03-01T15:11:19;22.50;;;13.20;;
35757;SDS011;21879;50.110;18.900;2023-03-01T15:32:24;16.10;;;9.80;;
35757;SDS011;21879;50.110;18.900;2023-03-01T15:42:50;22.00;;;12.60;;
35757;SDS011;21879;50.110;18.900;2023-03-01T15:53:15;20.70;;;12.80;;
35757;SDS011;21879;50.110;18.900;2023-03-01T16:03:41;18.10;;;11.30;;
35757;SDS011;21879;50.110;18.900;2023-03-01T16:14:06;22.10;;;14.50;;
35757;SDS011;21879;50.110;18.900;2023-03-01T16:24:31;25.20;;;14.10;;
35757;SDS011;21879;50.110;18.900;2023-03-01T16:34:58;20.60;;;10.50;;
35757;SDS011;21879;50.110;18.900;2023-03-01T16:45:23;18.90;;;9.90;;
35757;SDS011;21879;50.110;18.900;2023-03-01T16:55:53;21.00;;;10.60;;
35757;SDS011;21879;50.110;18.900;2023-03-01T17:06:20;26.50;;;12.10;;
35757;SDS011;21879;50.110;18.900;2023-03-01T17:16:47;114.30;;;59.70;;
35757;SDS011;21879;50.110;18.900;2023-03-01T17:27:12;87.60;;;41.20;;
35757;SDS011;21879;50.110;18.900;2023-03-01T17:37:37;54.30;;;27.00;;
35757;SDS011;21879;50.110;18.900;2023-03-01T17:48:15;73.50;;;35.80;;
35757;SDS011;21879;50.110;18.900;2023-03-01T17:58:40;65.70;;;29.30;;
35757;SDS011;21879;50.110;18.900;2023-03-01T18:09:05;67.50;;;30.30;;
35757;SDS011;21879;50.110;18.900;2023-03-01T18:19:30;51.80;;;22.10;;
35757;SDS011;21879;50.110;18.900;2023-03-01T18:29:56;34.20;;;17.70;;
35757;SDS011;21879;50.110;18.900;2023-03-01T18:40:21;28.20;;;14.80;;
35757;SDS011;21879;50.110;18.900;2023-03-01T18:50:46;38.90;;;23.50;;
35757;SDS011;21879;50.110;18.900;2023-03-01T19:01:12;30.30;;;18.30;;
35757;SDS011;21879;50.110;18.900;2023-03-01T19:11:38;46.30;;;27.60;;
35757;SDS011;21879;50.110;18.900;2023-03-01T19:22:02;36.30;;;25.30;;
35757;SDS011;21879;50.110;18.900;2023-03-01T19:32:29;25.30;;;15.60;;
35757;SDS011;21879;50.110;18.900;2023-03-01T19:42:54;29.90;;;16.10;;
35757;SDS011;21879;50.110;18.900;2023-03-01T19:53:19;27.30;;;16.00;;
35757;SDS011;21879;50.110;18.900;2023-03-01T20:03:44;29.60;;;17.60;;
35757;SDS011;21879;50.110;18.900;2023-03-01T20:14:11;26.60;;;17.10;;
35757;SDS011;21879;50.110;18.900;2023-03-01T20:24:36;25.90;;;16.90;;
35757;SDS011;21879;50.110;18.900;2023-03-01T20:35:01;33.70;;;19.80;;
35757;SDS011;21879;50.110;18.900;2023-03-01T20:45:25;30.90;;;20.50;;
35757;SDS011;21879;50.110;18.900;2023-03-01T20:55:50;37.80;;;25.50;;
35757;SDS011;21879;50.110;18.900;2023-03-01T21:06:14;34.30;;;21.10;;
35757;SDS011;21879;50.110;18.900;2023-03-01T21:16:39;29.20;;;17.40;;
35757;SDS011;21879;50.110;18.900;2023-03-01T21:27:07;37.50;;;22.50;;
35757;SDS011;21879;50.110;18.900;2023-03-01T21:37:31;29.90;;;19.40;;
35757;SDS011;21879;50.110;18.900;2023-03-01T21:47:55;35.70;;;20.10;;
35757;SDS011;21879;50.110;18.900;2023-03-01T21:58:20;35.80;;;19.60;;
35757;SDS011;21879;50.110;18.900;2023-03-01T22:08:45;36.80;;;22.20;;
35757;SDS011;21879;50.110;18.900;2023-03-01T22:19:10;28.10;;;17.50;;
35757;SDS011;21879;50.110;18.900;2023-03-01T22:29:35;32.30;;;19.00;;
35757;SDS011;21879;50.110;18.900;2023-03-01T22:40:00;34.80;;;20.70;;
35757;SDS011;21879;50.110;18.900;2023-03-01T22:50:25;49.60;;;28.90;;
35757;SDS011;21879;50.110;18.900;2023-03-01T23:00:49;38.20;;;24.80;;
35757;SDS011;21879;50.110;18.900;2023-03-01T23:11:14;43.30;;;25.20;;
35757;SDS011;21879;50.110;18.900;2023-03-01T23:21:39;47.50;;;25.60;;
35757;SDS011;21879;50.110;18.900;2023-03-01T23:32:08;41.00;;;26.30;;
35757;SDS011;21879;50.110;18.900;2023-03-01T23:42:33;74.00;;;40.80;;
35757;SDS011;21879;50.110;18.900;2023-03-01T23:52:57;53.90;;;29.70;;
